sensor_id;sensor_type;location;lat;lon;timestamp;P1;durP1;ratioP1;P2;durP2;ratioP2
43150;SDS011;28755;51.478;5.702;2022-07-29T00:00:34;11.68;;;2.25;;
43150;SDS011;28755;51.478;5.702;2022-07-29T00:03:01;20.90;;;2.83;;
43150;SDS011;28755;51.478;5.702;2022-07-29T00:05:27;21.13;;;4.25;;
43150;SDS011;28755;51.478;5.702;2022-07-29T00:07:53;22.60;;;5.47;;
43150;SDS011;28755;51.478;5.702;2022-07-29T00:10:19;15.82;;;4.55;;
43150;SDS011;28755;51.478;5.702;2022-07-29T00:12:45;17.38;;;3.35;;
43150;SDS011;28755;51.478;5.702;2022-07-29T00:15:11;9.65;;;3.28;;
43150;SDS011;28755;51.478;5.702;2022-07-29T00:17:37;8.15;;;2.90;;
43150;SDS011;28755;51.478;5.702;2022-07-29T00:20:03;10.98;;;2.83;;
43150;SDS011;28755;51.478;5.702;2022-07-29T00:22:29;13.90;;;2.90;;
43150;SDS011;28755;51.478;5.702;2022-07-29T00:24:55;11.02;;;2.15;;
43150;SDS011;28755;51.478;5.702;2022-07-29T00:27:20;9.25;;;2.42;;
43150;SDS011;28755;51.478;5.702;2022-07-29T00:29:46;11.18;;;2.53;;
43150;SDS011;28755;51.478;5.702;2022-07-29T00:32:12;6.07;;;2.50;;
43150;SDS011;28755;51.478;5.702;2022-07-29T00:34:38;9.00;;;2.72;;
43150;SDS011;28755;51.478;5.702;2022-07-29T00:37:23;6.57;;;2.75;;
43150;SDS011;28755;51.478;5.702;2022-07-29T00:39:49;7.13;;;2.83;;
43150;SDS011;28755;51.478;5.702;2022-07-29T00:42:15;6.43;;;2.50;;
43150;SDS011;28755;51.478;5.702;2022-07-29T00:44:41;6.50;;;2.40;;
43150;SDS011;28755;51.478;5.702;2022-07-29T00:47:08;5.22;;;2.35;;
43150;SDS011;28755;51.478;5.702;2022-07-29T00:49:35;23.15;;;2.80;;
43150;SDS011;28755;51.478;5.702;2022-07-29T00:52:04;5.10;;;2.10;;
43150;SDS011;28755;51.478;5.702;2022-07-29T00:54:31;9.17;;;2.77;;
43150;SDS011;28755;51.478;5.702;2022-07-29T00:56:58;7.40;;;2.75;;
43150;SDS011;28755;51.478;5.702;2022-07-29T00:59:24;6.97;;;2.70;;
43150;SDS011;28755;51.478;5.702;2022-07-29T01:01:54;9.07;;;2.97;;
43150;SDS011;28755;51.478;5.702;2022-07-29T01:04:23;4.28;;;2.28;;
43150;SDS011;28755;51.478;5.702;2022-07-29T01:06:49;10.77;;;2.90;;
43150;SDS011;28755;51.478;5.702;2022-07-29T01:09:16;9.32;;;3.28;;
43150;SDS011;28755;51.478;5.702;2022-07-29T01:11:43;8.15;;;2.80;;
43150;SDS011;28755;51.478;5.702;2022-07-29T01:14:10;13.07;;;3.53;;
43150;SDS011;28755;51.478;5.702;2022-07-29T01:16:42;9.52;;;3.88;;
43150;SDS011;28755;51.478;5.702;2022-07-29T01:19:31;11.35;;;3.20;;
43150;SDS011;28755;51.478;5.702;2022-07-29T01:30:26;6.75;;;3.85;;
43150;SDS011;28755;51.478;5.702;2022-07-29T01:32:54;11.02;;;3.90;;
43150;SDS011;28755;51.478;5.702;2022-07-29T01:35:28;12.65;;;3.70;;
43150;SDS011;28755;51.478;5.702;2022-07-29T01:38:11;9.95;;;3.30;;
43150;SDS011;28755;51.478;5.702;2022-07-29T01:40:58;6.07;;;3.90;;
43150;SDS011;28755;51.478;5.702;2022-07-29T01:43:33;7.93;;;3.65;;
43150;SDS011;28755;51.478;5.702;2022-07-29T01:46:19;8.60;;;3.30;;
43150;SDS011;28755;51.478;5.702;2022-07-29T01:48:55;7.65;;;3.45;;
43150;SDS011;28755;51.478;5.702;2022-07-29T01:51:27;13.05;;;3.40;;
43150;SDS011;28755;51.478;5.702;2022-07-29T01:54:05;11.48;;;3.90;;
43150;SDS011;28755;51.478;5.702;2022-07-29T01:56:32;9.10;;;4.00;;
43150;SDS011;28755;51.478;5.702;2022-07-29T01:59:01;8.75;;;4.00;;
43150;SDS011;28755;51.478;5.702;2022-07-29T02:01:29;8.00;;;3.90;;
43150;SDS011;28755;51.478;5.702;2022-07-29T02:03:57;8.77;;;4.40;;
43150;SDS011;28755;51.478;5.702;2022-07-29T02:06:26;6.85;;;3.80;;
43150;SDS011;28755;51.478;5.702;2022-07-29T02:08:54;10.10;;;3.63;;
43150;SDS011;28755;51.478;5.702;2022-07-29T02:11:23;6.65;;;3.33;;
43150;SDS011;28755;51.478;5.702;2022-07-29T02:13:49;8.27;;;3.20;;
43150;SDS011;28755;51.478;5.702;2022-07-29T02:16:17;8.80;;;3.10;;
43150;SDS011;28755;51.478;5.702;2022-07-29T02:18:45;7.20;;;3.00;;
43150;SDS011;28755;51.478;5.702;2022-07-29T02:21:15;6.20;;;3.20;;
43150;SDS011;28755;51.478;5.702;2022-07-29T02:23:48;6.82;;;3.13;;
43150;SDS011;28755;51.478;5.702;2022-07-29T02:26:15;6.65;;;3.78;;
43150;SDS011;28755;51.478;5.702;2022-07-29T02:28:42;7.15;;;3.38;;
43150;SDS011;28755;51.478;5.702;2022-07-29T02:31:09;5.97;;;3.42;;
43150;SDS011;28755;51.478;5.702;2022-07-29T02:33:37;9.98;;;3.53;;
43150;SDS011;28755;51.478;5.702;2022-07-29T02:36:05;7.93;;;3.50;;
43150;SDS011;28755;51.478;5.702;2022-07-29T02:38:32;6.57;;;3.50;;
43150;SDS011;28755;51.478;5.702;2022-07-29T02:41:40;8.60;;;3.50;;
43150;SDS011;28755;51.478;5.702;2022-07-29T02:44:11;4.65;;;3.42;;
43150;SDS011;28755;51.478;5.702;2022-07-29T02:46:41;7.40;;;3.60;;
43150;SDS011;28755;51.478;5.702;2022-07-29T02:51:55;5.95;;;3.45;;
43150;SDS011;28755;51.478;5.702;2022-07-29T02:54:44;8.05;;;3.50;;
43150;SDS011;28755;51.478;5.702;2022-07-29T02:57:27;10.50;;;3.60;;
43150;SDS011;28755;51.478;5.702;2022-07-29T02:59:58;7.75;;;3.70;;
43150;SDS011;28755;51.478;5.702;2022-07-29T03:02:29;7.93;;;3.70;;
43150;SDS011;28755;51.478;5.702;2022-07-29T03:05:10;7.97;;;3.45;;
43150;SDS011;28755;51.478;5.702;2022-07-29T03:07:40;8.40;;;3.67;;
43150;SDS011;28755;51.478;5.702;2022-07-29T03:10:10;7.75;;;3.80;;
43150;SDS011;28755;51.478;5.702;2022-07-29T03:12:37;8.25;;;3.80;;
43150;SDS011;28755;51.478;5.702;2022-07-29T03:15:03;7.80;;;4.10;;
43150;SDS011;28755;51.478;5.702;2022-07-29T03:17:30;5.88;;;3.55;;
43150;SDS011;28755;51.478;5.702;2022-07-29T03:19:57;6.07;;;3.28;;
43150;SDS011;28755;51.478;5.702;2022-07-29T03:22:23;6.32;;;3.60;;
43150;SDS011;28755;51.478;5.702;2022-07-29T03:24:49;6.70;;;4.18;;
43150;SDS011;28755;51.478;5.702;2022-07-29T03:27:15;10.15;;;3.60;;
43150;SDS011;28755;51.478;5.702;2022-07-29T03:29:41;7.38;;;3.30;;
43150;SDS011;28755;51.478;5.702;2022-07-29T03:32:07;7.55;;;3.25;;
43150;SDS011;28755;51.478;5.702;2022-07-29T03:34:32;6.55;;;3.45;;
43150;SDS011;28755;51.478;5.702;2022-07-29T03:36:58;8.60;;;3.47;;
43150;SDS011;28755;51.478;5.702;2022-07-29T03:39:25;6.95;;;3.40;;
43150;SDS011;28755;51.478;5.702;2022-07-29T03:41:55;8.05;;;4.18;;
43150;SDS011;28755;51.478;5.702;2022-07-29T03:44:22;9.43;;;4.30;;
43150;SDS011;28755;51.478;5.702;2022-07-29T03:46:50;11.45;;;4.43;;
43150;SDS011;28755;51.478;5.702;2022-07-29T03:49:19;7.35;;;3.97;;
43150;SDS011;28755;51.478;5.702;2022-07-29T03:51:46;7.25;;;3.97;;
43150;SDS011;28755;51.478;5.702;2022-07-29T03:54:12;9.43;;;4.47;;
43150;SDS011;28755;51.478;5.702;2022-07-29T03:56:39;5.47;;;4.25;;
43150;SDS011;28755;51.478;5.702;2022-07-29T03:59:07;8.75;;;4.10;;
43150;SDS011;28755;51.478;5.702;2022-07-29T04:01:34;7.70;;;4.03;;
43150;SDS011;28755;51.478;5.702;2022-07-29T04:04:01;7.50;;;4.18;;
43150;SDS011;28755;51.478;5.702;2022-07-29T04:06:27;7.78;;;4.45;;
43150;SDS011;28755;51.478;5.702;2022-07-29T04:08:53;9.43;;;4.75;;
43150;SDS011;28755;51.478;5.702;2022-07-29T04:11:18;17.15;;;5.65;;
43150;SDS011;28755;51.478;5.702;2022-07-29T04:13:44;8.98;;;4.50;;
43150;SDS011;28755;51.478;5.702;2022-07-29T04:16:10;11.32;;;5.20;;
43150;SDS011;28755;51.478;5.702;2022-07-29T04:18:35;7.32;;;4.80;;
43150;SDS011;28755;51.478;5.702;2022-07-29T04:21:01;8.27;;;4.82;;
43150;SDS011;28755;51.478;5.702;2022-07-29T04:23:31;8.02;;;5.20;;
43150;SDS011;28755;51.478;5.702;2022-07-29T04:25:58;7.88;;;4.80;;
43150;SDS011;28755;51.478;5.702;2022-07-29T04:28:25;7.75;;;4.93;;
43150;SDS011;28755;51.478;5.702;2022-07-29T04:30:51;10.25;;;4.90;;
43150;SDS011;28755;51.478;5.702;2022-07-29T04:33:17;10.50;;;5.30;;
43150;SDS011;28755;51.478;5.702;2022-07-29T04:35:42;10.10;;;5.40;;
43150;SDS011;28755;51.478;5.702;2022-07-29T04:38:08;10.60;;;4.63;;
43150;SDS011;28755;51.478;5.702;2022-07-29T04:40:34;8.50;;;5.15;;
43150;SDS011;28755;51.478;5.702;2022-07-29T04:43:00;11.02;;;5.20;;
43150;SDS011;28755;51.478;5.702;2022-07-29T04:45:26;11.45;;;5.68;;
43150;SDS011;28755;51.478;5.702;2022-07-29T04:47:52;12.32;;;5.97;;
43150;SDS011;28755;51.478;5.702;2022-07-29T04:50:18;13.50;;;5.05;;
43150;SDS011;28755;51.478;5.702;2022-07-29T04:52:44;10.75;;;5.10;;
43150;SDS011;28755;51.478;5.702;2022-07-29T04:55:09;10.27;;;5.88;;
43150;SDS011;28755;51.478;5.702;2022-07-29T04:57:35;12.38;;;5.63;;
43150;SDS011;28755;51.478;5.702;2022-07-29T05:00:01;9.05;;;5.47;;
43150;SDS011;28755;51.478;5.702;2022-07-29T05:02:27;10.75;;;5.43;;
43150;SDS011;28755;51.478;5.702;2022-07-29T05:04:53;12.48;;;5.80;;
43150;SDS011;28755;51.478;5.702;2022-07-29T05:07:19;13.10;;;5.75;;
43150;SDS011;28755;51.478;5.702;2022-07-29T05:09:44;8.55;;;5.45;;
43150;SDS011;28755;51.478;5.702;2022-07-29T05:18:54;9.23;;;5.90;;
43150;SDS011;28755;51.478;5.702;2022-07-29T05:21:19;9.68;;;5.68;;
43150;SDS011;28755;51.478;5.702;2022-07-29T05:23:45;14.63;;;6.72;;
43150;SDS011;28755;51.478;5.702;2022-07-29T05:26:11;12.68;;;6.45;;
43150;SDS011;28755;51.478;5.702;2022-07-29T05:28:37;8.13;;;5.60;;
43150;SDS011;28755;51.478;5.702;2022-07-29T05:31:02;8.50;;;6.22;;
43150;SDS011;28755;51.478;5.702;2022-07-29T05:33:28;11.40;;;6.07;;
43150;SDS011;28755;51.478;5.702;2022-07-29T05:35:54;7.32;;;5.38;;
43150;SDS011;28755;51.478;5.702;2022-07-29T05:38:19;11.95;;;7.18;;
43150;SDS011;28755;51.478;5.702;2022-07-29T05:40:45;11.10;;;5.88;;
43150;SDS011;28755;51.478;5.702;2022-07-29T05:43:11;10.75;;;5.80;;
43150;SDS011;28755;51.478;5.702;2022-07-29T05:45:38;11.40;;;5.88;;
43150;SDS011;28755;51.478;5.702;2022-07-29T05:48:04;7.03;;;6.00;;
43150;SDS011;28755;51.478;5.702;2022-07-29T05:50:29;9.32;;;5.90;;
43150;SDS011;28755;51.478;5.702;2022-07-29T05:52:55;8.45;;;6.00;;
43150;SDS011;28755;51.478;5.702;2022-07-29T05:55:21;11.82;;;7.15;;
43150;SDS011;28755;51.478;5.702;2022-07-29T05:57:46;9.95;;;7.00;;
43150;SDS011;28755;51.478;5.702;2022-07-29T06:00:12;14.48;;;6.95;;
43150;SDS011;28755;51.478;5.702;2022-07-29T06:02:38;10.43;;;6.30;;
43150;SDS011;28755;51.478;5.702;2022-07-29T06:05:04;10.05;;;6.93;;
43150;SDS011;28755;51.478;5.702;2022-07-29T06:07:29;16.33;;;6.65;;
43150;SDS011;28755;51.478;5.702;2022-07-29T06:09:55;10.45;;;6.60;;
43150;SDS011;28755;51.478;5.702;2022-07-29T06:12:21;11.25;;;6.93;;
43150;SDS011;28755;51.478;5.702;2022-07-29T06:14:47;9.38;;;6.65;;
43150;SDS011;28755;51.478;5.702;2022-07-29T06:17:12;19.35;;;9.18;;
43150;SDS011;28755;51.478;5.702;2022-07-29T06:19:38;22.55;;;13.85;;
43150;SDS011;28755;51.478;5.702;2022-07-29T06:22:04;10.80;;;8.52;;
43150;SDS011;28755;51.478;5.702;2022-07-29T06:24:30;16.13;;;8.05;;
43150;SDS011;28755;51.478;5.702;2022-07-29T06:26:55;12.98;;;8.10;;
43150;SDS011;28755;51.478;5.702;2022-07-29T06:29:21;10.82;;;7.22;;
43150;SDS011;28755;51.478;5.702;2022-07-29T06:31:47;13.07;;;7.82;;
43150;SDS011;28755;51.478;5.702;2022-07-29T06:34:12;11.00;;;7.28;;
43150;SDS011;28755;51.478;5.702;2022-07-29T06:36:38;15.77;;;8.23;;
43150;SDS011;28755;51.478;5.702;2022-07-29T06:39:04;10.25;;;7.22;;
43150;SDS011;28755;51.478;5.702;2022-07-29T06:41:31;12.18;;;7.38;;
43150;SDS011;28755;51.478;5.702;2022-07-29T06:43:56;15.02;;;8.00;;
43150;SDS011;28755;51.478;5.702;2022-07-29T06:46:22;11.25;;;7.15;;
43150;SDS011;28755;51.478;5.702;2022-07-29T06:48:48;11.95;;;7.22;;
43150;SDS011;28755;51.478;5.702;2022-07-29T06:51:14;10.50;;;7.38;;
43150;SDS011;28755;51.478;5.702;2022-07-29T06:53:41;15.48;;;7.72;;
43150;SDS011;28755;51.478;5.702;2022-07-29T06:56:07;11.00;;;7.55;;
43150;SDS011;28755;51.478;5.702;2022-07-29T06:58:38;11.63;;;7.45;;
43150;SDS011;28755;51.478;5.702;2022-07-29T07:01:04;11.82;;;7.53;;
43150;SDS011;28755;51.478;5.702;2022-07-29T07:03:30;12.52;;;7.25;;
43150;SDS011;28755;51.478;5.702;2022-07-29T07:05:57;9.88;;;6.40;;
43150;SDS011;28755;51.478;5.702;2022-07-29T07:08:22;11.70;;;6.93;;
43150;SDS011;28755;51.478;5.702;2022-07-29T07:10:49;10.73;;;7.57;;
43150;SDS011;28755;51.478;5.702;2022-07-29T07:13:16;10.07;;;7.55;;
43150;SDS011;28755;51.478;5.702;2022-07-29T07:15:42;10.10;;;6.93;;
43150;SDS011;28755;51.478;5.702;2022-07-29T07:18:09;20.48;;;7.50;;
43150;SDS011;28755;51.478;5.702;2022-07-29T07:20:35;11.27;;;7.40;;
43150;SDS011;28755;51.478;5.702;2022-07-29T07:23:01;8.82;;;6.35;;
43150;SDS011;28755;51.478;5.702;2022-07-29T07:25:27;11.20;;;7.00;;
43150;SDS011;28755;51.478;5.702;2022-07-29T07:27:53;7.75;;;6.28;;
43150;SDS011;28755;51.478;5.702;2022-07-29T07:30:19;10.85;;;6.68;;
43150;SDS011;28755;51.478;5.702;2022-07-29T07:32:44;7.20;;;5.97;;
43150;SDS011;28755;51.478;5.702;2022-07-29T07:35:10;12.20;;;6.00;;
43150;SDS011;28755;51.478;5.702;2022-07-29T07:37:36;8.70;;;6.13;;
43150;SDS011;28755;51.478;5.702;2022-07-29T07:40:03;15.27;;;6.50;;
43150;SDS011;28755;51.478;5.702;2022-07-29T07:42:29;9.68;;;6.88;;
43150;SDS011;28755;51.478;5.702;2022-07-29T07:44:55;10.10;;;6.18;;
43150;SDS011;28755;51.478;5.702;2022-07-29T07:47:21;9.40;;;6.35;;
43150;SDS011;28755;51.478;5.702;2022-07-29T07:49:49;13.75;;;6.40;;
43150;SDS011;28755;51.478;5.702;2022-07-29T07:52:15;8.63;;;6.72;;
43150;SDS011;28755;51.478;5.702;2022-07-29T07:54:42;11.98;;;6.80;;
43150;SDS011;28755;51.478;5.702;2022-07-29T07:57:09;8.43;;;6.32;;
43150;SDS011;28755;51.478;5.702;2022-07-29T07:59:36;8.85;;;6.57;;
43150;SDS011;28755;51.478;5.702;2022-07-29T08:02:02;11.82;;;7.10;;
43150;SDS011;28755;51.478;5.702;2022-07-29T08:04:28;9.82;;;6.15;;
43150;SDS011;28755;51.478;5.702;2022-07-29T08:06:55;8.65;;;6.28;;
43150;SDS011;28755;51.478;5.702;2022-07-29T08:09:21;12.52;;;6.50;;
43150;SDS011;28755;51.478;5.702;2022-07-29T08:11:48;7.50;;;5.63;;
43150;SDS011;28755;51.478;5.702;2022-07-29T08:14:13;13.10;;;6.18;;
43150;SDS011;28755;51.478;5.702;2022-07-29T08:16:40;10.43;;;5.78;;
43150;SDS011;28755;51.478;5.702;2022-07-29T08:19:07;9.57;;;6.10;;
43150;SDS011;28755;51.478;5.702;2022-07-29T08:21:32;8.55;;;5.65;;
43150;SDS011;28755;51.478;5.702;2022-07-29T08:23:58;8.35;;;5.40;;
43150;SDS011;28755;51.478;5.702;2022-07-29T08:26:42;7.22;;;5.40;;
43150;SDS011;28755;51.478;5.702;2022-07-29T08:29:09;11.73;;;5.63;;
43150;SDS011;28755;51.478;5.702;2022-07-29T08:31:35;15.07;;;5.57;;
43150;SDS011;28755;51.478;5.702;2022-07-29T08:34:01;8.02;;;5.47;;
43150;SDS011;28755;51.478;5.702;2022-07-29T08:36:28;8.80;;;5.22;;
43150;SDS011;28755;51.478;5.702;2022-07-29T08:38:54;8.82;;;5.10;;
43150;SDS011;28755;51.478;5.702;2022-07-29T08:41:20;12.20;;;5.10;;
43150;SDS011;28755;51.478;5.702;2022-07-29T08:43:47;10.63;;;4.93;;
43150;SDS011;28755;51.478;5.702;2022-07-29T08:46:13;8.25;;;4.97;;
43150;SDS011;28755;51.478;5.702;2022-07-29T08:48:40;11.18;;;5.22;;
43150;SDS011;28755;51.478;5.702;2022-07-29T08:51:06;14.32;;;4.75;;
43150;SDS011;28755;51.478;5.702;2022-07-29T08:53:33;7.68;;;4.50;;
43150;SDS011;28755;51.478;5.702;2022-07-29T08:55:59;11.40;;;4.47;;
43150;SDS011;28755;51.478;5.702;2022-07-29T08:58:25;6.10;;;4.22;;
43150;SDS011;28755;51.478;5.702;2022-07-29T09:00:56;8.25;;;4.25;;
43150;SDS011;28755;51.478;5.702;2022-07-29T09:03:25;9.10;;;4.82;;
43150;SDS011;28755;51.478;5.702;2022-07-29T09:05:55;7.57;;;4.57;;
43150;SDS011;28755;51.478;5.702;2022-07-29T09:08:22;10.40;;;4.93;;
43150;SDS011;28755;51.478;5.702;2022-07-29T09:10:48;7.95;;;4.95;;
43150;SDS011;28755;51.478;5.702;2022-07-29T09:13:14;9.23;;;4.70;;
43150;SDS011;28755;51.478;5.702;2022-07-29T09:15:39;10.05;;;4.30;;
43150;SDS011;28755;51.478;5.702;2022-07-29T09:18:05;13.25;;;5.57;;
43150;SDS011;28755;51.478;5.702;2022-07-29T09:20:31;8.30;;;4.75;;
43150;SDS011;28755;51.478;5.702;2022-07-29T09:23:15;6.95;;;4.80;;
43150;SDS011;28755;51.478;5.702;2022-07-29T09:25:41;8.57;;;5.10;;
43150;SDS011;28755;51.478;5.702;2022-07-29T09:28:10;6.32;;;4.00;;
43150;SDS011;28755;51.478;5.702;2022-07-29T09:30:52;7.75;;;4.18;;
43150;SDS011;28755;51.478;5.702;2022-07-29T09:33:23;7.75;;;4.53;;
43150;SDS011;28755;51.478;5.702;2022-07-29T09:35:59;7.28;;;4.75;;
43150;SDS011;28755;51.478;5.702;2022-07-29T09:38:28;6.78;;;4.40;;
43150;SDS011;28755;51.478;5.702;2022-07-29T09:40:58;9.48;;;4.15;;
43150;SDS011;28755;51.478;5.702;2022-07-29T09:43:25;9.55;;;4.38;;
43150;SDS011;28755;51.478;5.702;2022-07-29T09:45:51;9.38;;;3.63;;
43150;SDS011;28755;51.478;5.702;2022-07-29T09:48:18;7.70;;;3.33;;
43150;SDS011;28755;51.478;5.702;2022-07-29T09:50:45;5.15;;;3.47;;
43150;SDS011;28755;51.478;5.702;2022-07-29T09:53:29;7.20;;;3.45;;
43150;SDS011;28755;51.478;5.702;2022-07-29T09:55:55;6.03;;;3.60;;
43150;SDS011;28755;51.478;5.702;2022-07-29T09:58:21;5.72;;;3.78;;
43150;SDS011;28755;51.478;5.702;2022-07-29T10:00:47;8.20;;;4.05;;
43150;SDS011;28755;51.478;5.702;2022-07-29T10:03:15;5.68;;;3.60;;
43150;SDS011;28755;51.478;5.702;2022-07-29T10:05:41;5.93;;;3.20;;
43150;SDS011;28755;51.478;5.702;2022-07-29T10:08:07;8.82;;;3.88;;
43150;SDS011;28755;51.478;5.702;2022-07-29T10:10:35;8.90;;;4.45;;
43150;SDS011;28755;51.478;5.702;2022-07-29T10:15:31;8.60;;;4.13;;
43150;SDS011;28755;51.478;5.702;2022-07-29T10:17:59;7.55;;;4.10;;
43150;SDS011;28755;51.478;5.702;2022-07-29T10:20:25;11.85;;;4.13;;
43150;SDS011;28755;51.478;5.702;2022-07-29T10:22:52;7.15;;;3.30;;
43150;SDS011;28755;51.478;5.702;2022-07-29T10:25:19;8.80;;;3.22;;
43150;SDS011;28755;51.478;5.702;2022-07-29T10:27:45;8.57;;;3.03;;
43150;SDS011;28755;51.478;5.702;2022-07-29T10:30:13;5.32;;;3.40;;
43150;SDS011;28755;51.478;5.702;2022-07-29T10:46:37;5.13;;;2.90;;
43150;SDS011;28755;51.478;5.702;2022-07-29T10:49:05;6.90;;;2.63;;
43150;SDS011;28755;51.478;5.702;2022-07-29T10:52:01;6.72;;;2.70;;
43150;SDS011;28755;51.478;5.702;2022-07-29T10:59:48;4.95;;;2.85;;
43150;SDS011;28755;51.478;5.702;2022-07-29T11:05:07;5.30;;;2.40;;
43150;SDS011;28755;51.478;5.702;2022-07-29T11:10:37;5.57;;;2.90;;
43150;SDS011;28755;51.478;5.702;2022-07-29T11:13:03;6.10;;;2.55;;
43150;SDS011;28755;51.478;5.702;2022-07-29T11:15:29;7.30;;;2.83;;
43150;SDS011;28755;51.478;5.702;2022-07-29T11:18:19;8.02;;;2.40;;
43150;SDS011;28755;51.478;5.702;2022-07-29T11:20:46;4.57;;;2.30;;
43150;SDS011;28755;51.478;5.702;2022-07-29T11:23:24;5.40;;;2.40;;
43150;SDS011;28755;51.478;5.702;2022-07-29T11:26:18;6.20;;;1.88;;
43150;SDS011;28755;51.478;5.702;2022-07-29T11:31:42;4.30;;;2.35;;
43150;SDS011;28755;51.478;5.702;2022-07-29T11:39:34;5.93;;;2.25;;
43150;SDS011;28755;51.478;5.702;2022-07-29T11:44:55;6.47;;;2.20;;
43150;SDS011;28755;51.478;5.702;2022-07-29T11:47:21;3.08;;;1.75;;
43150;SDS011;28755;51.478;5.702;2022-07-29T11:49:48;5.68;;;2.22;;
43150;SDS011;28755;51.478;5.702;2022-07-29T11:52:18;4.80;;;2.35;;
43150;SDS011;28755;51.478;5.702;2022-07-29T11:54:45;8.07;;;2.13;;
43150;SDS011;28755;51.478;5.702;2022-07-29T11:57:14;3.17;;;1.83;;
43150;SDS011;28755;51.478;5.702;2022-07-29T11:59:41;7.60;;;2.47;;
43150;SDS011;28755;51.478;5.702;2022-07-29T12:02:08;5.07;;;2.33;;
43150;SDS011;28755;51.478;5.702;2022-07-29T12:04:56;5.53;;;2.15;;
43150;SDS011;28755;51.478;5.702;2022-07-29T12:07:28;5.13;;;2.75;;
43150;SDS011;28755;51.478;5.702;2022-07-29T12:09:54;5.53;;;2.53;;
43150;SDS011;28755;51.478;5.702;2022-07-29T12:12:20;4.57;;;2.67;;
43150;SDS011;28755;51.478;5.702;2022-07-29T12:14:46;5.32;;;2.50;;
43150;SDS011;28755;51.478;5.702;2022-07-29T12:17:34;5.53;;;2.58;;
43150;SDS011;28755;51.478;5.702;2022-07-29T12:20:00;5.82;;;2.15;;
43150;SDS011;28755;51.478;5.702;2022-07-29T12:22:38;6.80;;;2.10;;
43150;SDS011;28755;51.478;5.702;2022-07-29T12:25:13;5.70;;;1.98;;
43150;SDS011;28755;51.478;5.702;2022-07-29T12:27:41;7.55;;;2.10;;
43150;SDS011;28755;51.478;5.702;2022-07-29T12:30:09;5.55;;;2.40;;
43150;SDS011;28755;51.478;5.702;2022-07-29T12:35:28;8.05;;;2.38;;
43150;SDS011;28755;51.478;5.702;2022-07-29T12:37:53;8.63;;;3.00;;
43150;SDS011;28755;51.478;5.702;2022-07-29T12:40:19;6.75;;;2.72;;
43150;SDS011;28755;51.478;5.702;2022-07-29T12:43:04;7.65;;;3.30;;
43150;SDS011;28755;51.478;5.702;2022-07-29T12:45:32;10.02;;;3.47;;
43150;SDS011;28755;51.478;5.702;2022-07-29T12:47:58;6.47;;;2.88;;
43150;SDS011;28755;51.478;5.702;2022-07-29T12:50:24;6.50;;;2.85;;
43150;SDS011;28755;51.478;5.702;2022-07-29T12:52:50;8.45;;;3.30;;
43150;SDS011;28755;51.478;5.702;2022-07-29T12:55:15;6.78;;;3.75;;
43150;SDS011;28755;51.478;5.702;2022-07-29T12:58:01;9.65;;;3.63;;
43150;SDS011;28755;51.478;5.702;2022-07-29T13:00:27;8.93;;;3.65;;
43150;SDS011;28755;51.478;5.702;2022-07-29T13:02:57;7.72;;;4.38;;
43150;SDS011;28755;51.478;5.702;2022-07-29T13:05:24;8.70;;;3.85;;
43150;SDS011;28755;51.478;5.702;2022-07-29T13:08:13;7.53;;;3.60;;
43150;SDS011;28755;51.478;5.702;2022-07-29T13:10:39;5.53;;;3.22;;
43150;SDS011;28755;51.478;5.702;2022-07-29T13:13:07;8.63;;;3.30;;
43150;SDS011;28755;51.478;5.702;2022-07-29T13:15:36;6.28;;;2.67;;
43150;SDS011;28755;51.478;5.702;2022-07-29T13:18:03;6.05;;;2.70;;
43150;SDS011;28755;51.478;5.702;2022-07-29T13:20:30;5.97;;;2.80;;
43150;SDS011;28755;51.478;5.702;2022-07-29T13:22:56;9.13;;;3.15;;
43150;SDS011;28755;51.478;5.702;2022-07-29T13:25:24;11.68;;;2.60;;
43150;SDS011;28755;51.478;5.702;2022-07-29T13:30:20;7.75;;;2.72;;
43150;SDS011;28755;51.478;5.702;2022-07-29T13:32:46;6.05;;;3.30;;
43150;SDS011;28755;51.478;5.702;2022-07-29T13:35:12;5.57;;;2.47;;
43150;SDS011;28755;51.478;5.702;2022-07-29T13:37:38;6.10;;;2.50;;
43150;SDS011;28755;51.478;5.702;2022-07-29T13:40:05;9.88;;;2.55;;
43150;SDS011;28755;51.478;5.702;2022-07-29T13:42:32;6.32;;;3.08;;
43150;SDS011;28755;51.478;5.702;2022-07-29T13:44:58;7.88;;;2.90;;
43150;SDS011;28755;51.478;5.702;2022-07-29T13:47:24;5.80;;;2.78;;
43150;SDS011;28755;51.478;5.702;2022-07-29T13:49:50;8.82;;;3.65;;
43150;SDS011;28755;51.478;5.702;2022-07-29T13:52:15;5.35;;;2.80;;
43150;SDS011;28755;51.478;5.702;2022-07-29T13:54:42;8.82;;;3.88;;
43150;SDS011;28755;51.478;5.702;2022-07-29T13:57:08;8.25;;;3.60;;
43150;SDS011;28755;51.478;5.702;2022-07-29T13:59:38;11.68;;;3.40;;
43150;SDS011;28755;51.478;5.702;2022-07-29T14:02:07;7.38;;;2.35;;
43150;SDS011;28755;51.478;5.702;2022-07-29T14:04:34;4.72;;;2.30;;
43150;SDS011;28755;51.478;5.702;2022-07-29T14:07:00;7.57;;;2.30;;
43150;SDS011;28755;51.478;5.702;2022-07-29T14:09:26;7.85;;;2.33;;
43150;SDS011;28755;51.478;5.702;2022-07-29T14:11:51;9.98;;;2.88;;
43150;SDS011;28755;51.478;5.702;2022-07-29T14:14:18;4.40;;;2.80;;
43150;SDS011;28755;51.478;5.702;2022-07-29T14:16:44;5.53;;;2.78;;
43150;SDS011;28755;51.478;5.702;2022-07-29T14:19:10;7.30;;;2.60;;
43150;SDS011;28755;51.478;5.702;2022-07-29T14:21:36;6.53;;;3.22;;
43150;SDS011;28755;51.478;5.702;2022-07-29T14:24:02;6.97;;;3.03;;
43150;SDS011;28755;51.478;5.702;2022-07-29T14:26:28;7.95;;;2.60;;
43150;SDS011;28755;51.478;5.702;2022-07-29T14:28:54;4.82;;;2.67;;
43150;SDS011;28755;51.478;5.702;2022-07-29T14:31:19;8.52;;;2.70;;
43150;SDS011;28755;51.478;5.702;2022-07-29T14:33:45;8.65;;;2.75;;
43150;SDS011;28755;51.478;5.702;2022-07-29T14:36:10;5.75;;;2.38;;
43150;SDS011;28755;51.478;5.702;2022-07-29T14:38:36;8.68;;;2.47;;
43150;SDS011;28755;51.478;5.702;2022-07-29T14:41:02;9.10;;;2.65;;
43150;SDS011;28755;51.478;5.702;2022-07-29T14:43:28;4.95;;;2.15;;
43150;SDS011;28755;51.478;5.702;2022-07-29T14:45:54;7.28;;;2.03;;
43150;SDS011;28755;51.478;5.702;2022-07-29T14:48:19;3.83;;;1.88;;
43150;SDS011;28755;51.478;5.702;2022-07-29T14:50:45;7.28;;;2.10;;
43150;SDS011;28755;51.478;5.702;2022-07-29T14:53:10;4.60;;;1.85;;
43150;SDS011;28755;51.478;5.702;2022-07-29T14:55:37;4.80;;;2.15;;
43150;SDS011;28755;51.478;5.702;2022-07-29T14:58:04;5.13;;;2.10;;
43150;SDS011;28755;51.478;5.702;2022-07-29T15:00:29;5.65;;;2.08;;
43150;SDS011;28755;51.478;5.702;2022-07-29T15:02:57;7.82;;;2.08;;
43150;SDS011;28755;51.478;5.702;2022-07-29T15:05:24;4.43;;;1.85;;
43150;SDS011;28755;51.478;5.702;2022-07-29T15:07:50;5.97;;;1.80;;
43150;SDS011;28755;51.478;5.702;2022-07-29T15:10:16;7.70;;;2.20;;
43150;SDS011;28755;51.478;5.702;2022-07-29T15:12:42;5.20;;;1.80;;
43150;SDS011;28755;51.478;5.702;2022-07-29T15:15:08;4.85;;;2.25;;
43150;SDS011;28755;51.478;5.702;2022-07-29T15:17:34;5.82;;;1.80;;
43150;SDS011;28755;51.478;5.702;2022-07-29T15:20:00;7.25;;;1.90;;
43150;SDS011;28755;51.478;5.702;2022-07-29T15:22:25;5.88;;;1.92;;
43150;SDS011;28755;51.478;5.702;2022-07-29T15:24:51;8.95;;;1.83;;
43150;SDS011;28755;51.478;5.702;2022-07-29T15:27:17;4.20;;;1.83;;
43150;SDS011;28755;51.478;5.702;2022-07-29T15:29:43;7.65;;;2.28;;
43150;SDS011;28755;51.478;5.702;2022-07-29T15:32:09;8.02;;;2.25;;
43150;SDS011;28755;51.478;5.702;2022-07-29T15:34:35;4.07;;;1.67;;
43150;SDS011;28755;51.478;5.702;2022-07-29T15:37:01;3.83;;;1.73;;
43150;SDS011;28755;51.478;5.702;2022-07-29T15:39:26;9.10;;;2.35;;
43150;SDS011;28755;51.478;5.702;2022-07-29T15:41:52;4.97;;;1.60;;
43150;SDS011;28755;51.478;5.702;2022-07-29T15:44:19;4.78;;;2.17;;
43150;SDS011;28755;51.478;5.702;2022-07-29T15:46:45;5.05;;;1.83;;
43150;SDS011;28755;51.478;5.702;2022-07-29T15:49:30;6.28;;;1.83;;